createdAt,value
2023-05-23T00:00:33.447Z,101190.28
2023-05-23T00:03:00.795Z,101189.16
2023-05-23T00:05:27.338Z,101187.28
2023-05-23T00:07:53.691Z,101187.03
2023-05-23T00:10:20.150Z,101187.81
2023-05-23T00:12:48.366Z,101193.03
2023-05-23T00:15:14.874Z,101178.22
2023-05-23T00:17:41.736Z,101177.69
2023-05-23T00:20:12.056Z,101177.16
2023-05-23T00:26:24.324Z,101170.88
2023-05-23T00:28:50.861Z,101185.47
2023-05-23T00:31:17.780Z,101191.78
2023-05-23T00:33:44.317Z,101192.63
2023-05-23T00:36:10.815Z,101198.94
2023-05-23T00:38:37.232Z,101204.69
2023-05-23T00:41:41.215Z,101192.09
2023-05-23T00:44:16.526Z,101196.78
2023-05-23T00:46:46.093Z,101189.88
2023-05-23T00:49:12.934Z,101194.81
2023-05-23T00:51:39.356Z,101195.63
2023-05-23T00:54:06.722Z,101197.00
2023-05-23T00:56:33.345Z,101195.97
2023-05-23T00:59:00.898Z,101191.56
2023-05-23T01:01:27.408Z,101193.28
2023-05-23T01:03:54.066Z,101192.97
2023-05-23T01:06:20.603Z,101192.16
2023-05-23T01:11:43.665Z,101195.44
2023-05-23T01:14:15.991Z,101196.53
2023-05-23T01:16:49.810Z,101209.13
2023-05-23T01:19:58.474Z,101207.97
2023-05-23T01:22:34.683Z,101208.81
2023-05-23T01:25:10.848Z,101204.47
2023-05-23T01:27:39.989Z,101212.41
2023-05-23T01:30:10.452Z,101203.63
2023-05-23T01:32:37.501Z,101198.72
2023-05-23T01:35:05.568Z,101199.25
2023-05-23T01:37:32.098Z,101198.72
2023-05-23T01:39:58.631Z,101190.75
2023-05-23T01:42:25.126Z,101195.94
2023-05-23T01:44:52.479Z,101203.63
2023-05-23T01:47:20.887Z,101202.56
2023-05-23T01:49:48.181Z,101200.38
2023-05-23T01:52:15.657Z,101204.78
2023-05-23T01:54:43.889Z,101222.94
2023-05-23T01:57:11.557Z,101226.78
2023-05-23T01:59:38.895Z,101227.88
2023-05-23T02:02:06.078Z,101229.00
2023-05-23T02:19:41.035Z,101235.09
2023-05-23T02:22:07.475Z,101240.56
2023-05-23T02:24:33.966Z,101247.72
2023-05-23T02:27:00.579Z,101249.91
2023-05-23T02:29:27.051Z,101247.16
2023-05-23T02:31:53.569Z,101240.03
2023-05-23T02:34:19.987Z,101245.25
2023-05-23T02:36:46.419Z,101244.44
2023-05-23T02:39:13.182Z,101243.31
2023-05-23T02:41:39.589Z,101250.16
2023-05-23T02:44:06.209Z,101246.88
2023-05-23T02:46:32.986Z,101248.81
2023-05-23T02:48:59.528Z,101254.28
2023-05-23T02:51:26.271Z,101248.25
2023-05-23T02:53:52.618Z,101247.16
2023-05-23T02:56:19.130Z,101244.69
2023-05-23T02:58:45.516Z,101247.44
2023-05-23T03:01:12.162Z,101241.66
2023-05-23T03:03:38.688Z,101248.50
2023-05-23T03:06:06.236Z,101249.91
2023-05-23T03:08:32.765Z,101243.88
2023-05-23T03:10:59.269Z,101247.16
2023-05-23T03:13:25.612Z,101237.28
2023-05-23T03:15:52.135Z,101243.84
2023-05-23T03:18:18.523Z,101249.91
2023-05-23T03:20:45.099Z,101251.00
2023-05-23T03:23:11.571Z,101254.56
2023-05-23T03:25:38.033Z,101250.47
2023-05-23T03:28:04.662Z,101259.22
2023-05-23T03:30:31.049Z,101265.25
2023-05-23T03:32:57.438Z,101264.75
2023-05-23T03:35:23.915Z,101265.28
2023-05-23T03:37:50.464Z,101268.06
2023-05-23T03:40:16.847Z,101267.78
2023-05-23T03:42:43.215Z,101271.63
2023-05-23T03:45:09.872Z,101272.16
2023-05-23T03:47:36.398Z,101274.34
2023-05-23T03:50:02.889Z,101269.97
2023-05-23T03:52:29.332Z,101261.44
2023-05-23T03:54:55.769Z,101276.53
2023-05-23T03:57:22.753Z,101270.75
2023-05-23T03:59:49.377Z,101273.50
2023-05-23T04:02:16.041Z,101266.13
2023-05-23T04:04:42.429Z,101267.75
2023-05-23T04:07:09.991Z,101277.34
2023-05-23T04:09:36.458Z,101274.31
2023-05-23T04:12:02.887Z,101270.50
2023-05-23T04:14:29.297Z,101274.31
2023-05-23T04:16:55.681Z,101282.84
2023-05-23T04:19:24.973Z,101282.84
2023-05-23T04:21:51.454Z,101286.69
2023-05-23T04:24:17.959Z,101287.75
2023-05-23T04:26:44.335Z,101288.88
2023-05-23T04:29:12.131Z,101295.72
2023-05-23T04:31:38.886Z,101302.31
2023-05-23T04:34:05.359Z,101299.28
2023-05-23T04:36:31.712Z,101298.19
2023-05-23T04:38:58.275Z,101306.69
2023-05-23T04:41:24.679Z,101298.72
2023-05-23T04:43:54.269Z,101299.28
2023-05-23T04:46:26.444Z,101304.78
2023-05-23T04:48:54.805Z,101302.59
2023-05-23T04:51:22.051Z,101305.31
2023-05-23T04:53:50.390Z,101304.22
2023-05-23T04:56:22.836Z,101311.91
2023-05-23T04:58:49.295Z,101320.13
2023-05-23T05:01:15.881Z,101327.25
2023-05-23T05:03:42.459Z,101323.66
2023-05-23T05:06:08.930Z,101323.94
2023-05-23T05:08:36.248Z,101316.00
2023-05-23T05:11:02.938Z,101319.56
2023-05-23T05:13:29.315Z,101328.31
2023-05-23T05:15:55.888Z,101328.34
2023-05-23T05:18:22.313Z,101320.63
2023-05-23T05:20:48.814Z,101331.63
2023-05-23T05:23:15.219Z,101334.63
2023-05-23T05:25:41.620Z,101331.63
2023-05-23T05:28:08.184Z,101331.59
2023-05-23T05:30:38.815Z,101324.22
2023-05-23T05:33:06.093Z,101339.00
2023-05-23T05:35:33.409Z,101336.00
2023-05-23T05:38:00.572Z,101328.88
2023-05-23T05:40:27.005Z,101328.88
2023-05-23T05:42:53.555Z,101340.63
2023-05-23T05:45:20.038Z,101343.09
2023-05-23T05:47:46.881Z,101345.31
2023-05-23T05:50:13.326Z,101339.84
2023-05-23T05:52:42.452Z,101342.88
2023-05-23T05:55:13.702Z,101345.88
2023-05-23T05:57:41.102Z,101347.22
2023-05-23T06:00:13.334Z,101352.69
2023-05-23T06:02:39.874Z,101357.91
2023-05-23T06:05:07.913Z,101355.16
2023-05-23T06:07:36.036Z,101363.13
2023-05-23T06:10:03.690Z,101355.16
2023-05-23T06:12:30.066Z,101363.94
2023-05-23T06:14:56.809Z,101360.13
2023-05-23T06:17:23.255Z,101366.69
2023-05-23T06:19:49.726Z,101361.47
2023-05-23T06:22:16.355Z,101361.72
2023-05-23T06:24:42.821Z,101363.94
2023-05-23T06:27:09.216Z,101367.50
2023-05-23T06:29:38.715Z,101367.19
2023-05-23T06:32:06.056Z,101369.41
2023-05-23T06:34:32.603Z,101366.13
2023-05-23T06:36:59.165Z,101367.78
2023-05-23T06:39:25.592Z,101367.78
2023-05-23T06:41:52.054Z,101373.81
2023-05-23T06:44:18.587Z,101369.97
2023-05-23T06:46:48.278Z,101369.97
2023-05-23T06:49:15.572Z,101374.31
2023-05-23T06:51:42.100Z,101380.09
2023-05-23T06:54:08.656Z,101380.94
2023-05-23T06:56:35.224Z,101384.72
2023-05-23T06:59:01.731Z,101381.44
2023-05-23T07:01:28.295Z,101393.00
2023-05-23T07:03:54.915Z,101386.97
2023-05-23T07:06:21.447Z,101399.59
2023-05-23T07:08:47.902Z,101393.81
2023-05-23T07:11:14.597Z,101396.84
2023-05-23T07:13:41.038Z,101396.31
2023-05-23T07:16:07.496Z,101405.06
2023-05-23T07:18:36.060Z,101405.63
2023-05-23T07:21:04.144Z,101402.03
2023-05-23T07:23:36.574Z,101409.69
2023-05-23T07:26:03.521Z,101416.59
2023-05-23T07:28:30.204Z,101412.75
2023-05-23T07:30:59.265Z,101409.47
2023-05-23T07:33:25.734Z,101416.88
2023-05-23T07:35:52.243Z,101419.34
2023-05-23T07:38:18.741Z,101417.69
2023-05-23T07:40:50.166Z,101422.66
2023-05-23T07:43:22.518Z,101422.66
2023-05-23T07:45:48.923Z,101424.84
2023-05-23T07:48:15.357Z,101425.41
2023-05-23T07:50:41.984Z,101425.94
2023-05-23T07:53:08.585Z,101427.03
2023-05-23T07:55:34.998Z,101435.00
2023-05-23T07:58:01.527Z,101436.94
2023-05-23T08:00:28.152Z,101439.38
2023-05-23T08:02:54.610Z,101435.81
2023-05-23T08:05:22.858Z,101439.06
2023-05-23T08:07:49.489Z,101447.28
2023-05-23T08:10:15.927Z,101436.31
2023-05-23T08:12:42.451Z,101447.84
2023-05-23T08:15:09.838Z,101443.19
2023-05-23T08:17:36.320Z,101450.03
2023-05-23T08:20:05.116Z,101459.38
2023-05-23T08:22:31.644Z,101460.47
2023-05-23T08:24:58.258Z,101454.16
2023-05-23T08:27:24.632Z,101459.13
2023-05-23T08:29:50.996Z,101466.50
2023-05-23T08:32:17.552Z,101459.94
2023-05-23T08:34:44.186Z,101452.84
2023-05-23T08:37:11.021Z,101470.91
2023-05-23T08:39:37.502Z,101469.28
2023-05-23T08:42:04.344Z,101467.06
2023-05-23T08:44:30.772Z,101466.78
2023-05-23T08:47:02.439Z,101472.25
2023-05-23T08:49:28.961Z,101473.38
2023-05-23T08:51:58.489Z,101462.09
2023-05-23T08:54:25.441Z,101475.00
2023-05-23T08:56:52.312Z,101479.63
2023-05-23T08:59:19.950Z,101485.09
2023-05-23T09:01:48.392Z,101478.56
2023-05-23T09:04:15.258Z,101496.94
2023-05-23T09:06:41.723Z,101489.25
2023-05-23T09:09:08.733Z,101498.59
2023-05-23T09:11:36.451Z,101500.22
2023-05-23T09:14:05.087Z,101498.06
2023-05-23T09:16:34.912Z,101499.44
2023-05-23T09:19:11.276Z,101502.44
2023-05-23T09:21:37.817Z,101507.38
2023-05-23T09:24:05.716Z,101503.53
2023-05-23T09:26:32.227Z,101508.19
2023-05-23T09:28:59.627Z,101514.50
2023-05-23T09:31:31.976Z,101522.72
2023-05-23T09:33:59.976Z,101521.34
2023-05-23T09:36:32.530Z,101520.25
2023-05-23T09:39:03.647Z,101523.53
2023-05-23T09:41:33.148Z,101530.13
2023-05-23T09:44:01.311Z,101522.41
2023-05-23T09:46:30.790Z,101526.22
2023-05-23T09:48:57.240Z,101533.84
2023-05-23T09:51:24.556Z,101542.34
2023-05-23T09:53:51.183Z,101533.28
2023-05-23T09:56:18.472Z,101532.69
2023-05-23T09:58:47.700Z,101529.38
2023-05-23T10:01:15.062Z,101534.56
2023-05-23T10:03:51.670Z,101541.72
2023-05-23T10:06:56.961Z,101541.41
2023-05-23T10:09:26.970Z,101555.59
2023-05-23T10:12:39.485Z,101539.16
2023-05-23T10:15:08.950Z,101551.75
2023-05-23T10:18:02.731Z,101543.44
2023-05-23T10:20:33.308Z,101546.22
2023-05-23T10:23:01.434Z,101546.88
2023-05-23T10:25:29.178Z,101556.84
2023-05-23T10:28:02.422Z,101548.94
2023-05-23T10:30:30.954Z,101542.97
2023-05-23T10:32:58.996Z,101550.91
2023-05-23T10:35:32.703Z,101548.13
2023-05-23T10:38:17.786Z,101559.69
2023-05-23T10:41:06.512Z,101548.16
2023-05-23T10:44:10.053Z,101560.31
2023-05-23T10:46:54.891Z,101562.53
2023-05-23T10:49:22.729Z,101558.69
2023-05-23T10:51:52.162Z,101562.63
2023-05-23T10:54:20.465Z,101570.34
2023-05-23T10:56:47.036Z,101571.44
2023-05-23T10:59:24.245Z,101574.97
2023-05-23T11:01:52.486Z,101592.28
2023-05-23T11:04:26.830Z,101589.00
2023-05-23T11:06:55.298Z,101590.81
2023-05-23T11:09:22.343Z,101587.53
2023-05-23T11:11:49.468Z,101594.38
2023-05-23T11:14:16.172Z,101597.19
2023-05-23T11:16:46.429Z,101603.16
2023-05-23T11:19:19.130Z,101604.53
2023-05-23T11:21:49.109Z,101602.59
2023-05-23T11:24:16.339Z,101611.34
2023-05-23T11:26:54.075Z,101610.78
2023-05-23T11:29:20.663Z,101611.84
2023-05-23T11:31:47.167Z,101617.84
2023-05-23T11:34:14.023Z,101618.84
2023-05-23T11:36:40.900Z,101616.63
2023-05-23T11:39:07.968Z,101627.78
2023-05-23T11:41:35.680Z,101626.34
2023-05-23T11:44:02.506Z,101635.31
2023-05-23T11:46:29.186Z,101639.72
2023-05-23T11:48:56.016Z,101635.19
2023-05-23T11:51:22.566Z,101634.81
2023-05-23T11:53:49.223Z,101624.53
2023-05-23T11:56:16.356Z,101627.81
2023-05-23T11:58:43.386Z,101621.38
2023-05-23T12:01:12.129Z,101623.66
2023-05-23T12:03:47.383Z,101618.66
2023-05-23T12:06:21.954Z,101612.41
2023-05-23T12:08:51.344Z,101614.66
2023-05-23T12:11:18.961Z,101623.16
2023-05-23T12:13:45.716Z,101616.28
2023-05-23T12:16:15.372Z,101615.31
2023-05-23T12:18:42.641Z,101613.13
2023-05-23T12:21:09.415Z,101609.31
2023-05-23T12:23:36.794Z,101612.34
2023-05-23T12:26:07.422Z,101614.78
2023-05-23T12:28:36.352Z,101617.53
2023-05-23T12:31:16.051Z,101620.50
2023-05-23T12:33:47.716Z,101630.66
2023-05-23T12:36:15.854Z,101629.53
2023-05-23T12:38:45.340Z,101619.06
2023-05-23T12:41:21.880Z,101618.31
2023-05-23T12:43:53.697Z,101616.38
2023-05-23T12:46:24.823Z,101621.91
2023-05-23T12:48:51.385Z,101626.84
2023-05-23T12:51:17.929Z,101623.03
2023-05-23T12:53:44.996Z,101629.00
2023-05-23T12:56:11.738Z,101622.16
2023-05-23T12:58:38.467Z,101630.28
2023-05-23T13:01:05.265Z,101631.41
2023-05-23T13:03:32.086Z,101630.16
2023-05-23T13:05:59.495Z,101632.88
2023-05-23T13:08:27.532Z,101631.78
2023-05-23T13:10:54.339Z,101635.63
2023-05-23T13:13:21.010Z,101628.72
2023-05-23T13:15:48.959Z,101636.03
2023-05-23T13:18:17.426Z,101640.44
2023-05-23T13:20:43.976Z,101639.88
2023-05-23T13:23:10.402Z,101642.72
2023-05-23T13:25:36.841Z,101637.50
2023-05-23T13:28:03.284Z,101640.00
2023-05-23T13:30:29.897Z,101649.84
2023-05-23T13:32:56.432Z,101640.81
2023-05-23T13:35:22.916Z,101649.38
2023-05-23T13:37:49.453Z,101645.28
2023-05-23T13:40:21.020Z,101639.56
2023-05-23T13:42:51.496Z,101641.25
2023-05-23T13:45:19.017Z,101634.16
2023-05-23T13:47:46.580Z,101637.50
2023-05-23T13:50:13.205Z,101637.50
2023-05-23T13:52:42.917Z,101637.22
2023-05-23T13:55:11.108Z,101635.31
2023-05-23T13:57:37.653Z,101642.97
2023-05-23T14:00:05.328Z,101635.53
2023-05-23T14:02:34.767Z,101635.25
2023-05-23T14:05:01.557Z,101628.38
2023-05-23T14:07:28.214Z,101632.25
2023-05-23T14:09:54.686Z,101628.72
2023-05-23T14:12:21.222Z,101630.41
2023-05-23T14:14:47.585Z,101624.94
2023-05-23T14:17:17.798Z,101623.81
2023-05-23T14:19:44.578Z,101627.38
2023-05-23T14:22:11.477Z,101629.53
2023-05-23T14:24:37.986Z,101631.53
2023-05-23T14:27:04.771Z,101627.66
2023-05-23T14:29:31.688Z,101626.56
2023-05-23T14:31:59.870Z,101622.69
2023-05-23T14:34:26.705Z,101625.44
2023-05-23T14:36:53.831Z,101631.44
2023-05-23T14:39:20.296Z,101624.56
2023-05-23T14:41:46.947Z,101619.94
2023-05-23T14:44:13.739Z,101619.13
2023-05-23T14:46:42.025Z,101617.75
2023-05-23T14:49:08.670Z,101617.75
2023-05-23T14:54:09.662Z,101612.56
2023-05-23T14:56:37.653Z,101622.72
2023-05-23T14:59:05.254Z,101616.66
2023-05-23T15:01:32.045Z,101619.41
2023-05-23T15:03:58.735Z,101616.69
2023-05-23T15:06:25.131Z,101615.31
2023-05-23T15:08:52.430Z,101616.13
2023-05-23T15:11:19.036Z,101619.16
2023-05-23T15:13:45.562Z,101616.38
2023-05-23T15:16:12.637Z,101603.75
2023-05-23T15:18:42.087Z,101609.22
2023-05-23T15:21:08.976Z,101604.00
2023-05-23T15:23:35.774Z,101605.38
2023-05-23T15:26:02.244Z,101605.09
2023-05-23T15:28:28.627Z,101599.59
2023-05-23T15:30:57.023Z,101601.78
2023-05-23T15:33:23.543Z,101604.00
2023-05-23T15:35:50.078Z,101601.78
2023-05-23T15:38:18.477Z,101595.72
2023-05-23T15:40:48.794Z,101591.84
2023-05-23T15:43:15.468Z,101598.97
2023-05-23T15:45:42.416Z,101588.53
2023-05-23T15:48:09.059Z,101594.03
2023-05-23T15:50:35.573Z,101590.19
2023-05-23T15:53:02.097Z,101593.25
2023-05-23T15:55:28.662Z,101582.50
2023-05-23T15:57:55.067Z,101573.19
2023-05-23T16:00:22.149Z,101583.63
2023-05-23T16:02:48.713Z,101588.63
2023-05-23T16:05:15.227Z,101589.69
2023-05-23T16:07:41.654Z,101590.00
2023-05-23T16:10:08.801Z,101584.78
2023-05-23T16:12:35.412Z,101586.69
2023-05-23T16:15:01.829Z,101590.53
2023-05-23T16:17:28.327Z,101578.13
2023-05-23T16:19:54.730Z,101586.38
2023-05-23T16:22:21.153Z,101589.72
2023-05-23T16:24:47.596Z,101589.69
2023-05-23T16:27:14.212Z,101589.19
2023-05-23T16:29:40.850Z,101583.66
2023-05-23T16:32:07.815Z,101584.50
2023-05-23T16:34:35.148Z,101584.50
2023-05-23T16:37:01.582Z,101584.78
2023-05-23T16:39:28.188Z,101584.78
2023-05-23T16:41:54.673Z,101579.84
2023-05-23T16:44:21.260Z,101581.50
2023-05-23T16:46:47.853Z,101592.22
2023-05-23T16:49:14.429Z,101583.16
2023-05-23T16:51:40.799Z,101588.06
2023-05-23T16:54:07.952Z,101583.97
2023-05-23T16:56:34.506Z,101587.25
2023-05-23T16:59:01.127Z,101584.78
2023-05-23T17:01:29.340Z,101585.91
2023-05-23T17:03:56.874Z,101597.94
2023-05-23T17:06:23.504Z,101595.19
2023-05-23T17:08:50.569Z,101600.97
2023-05-23T17:11:17.199Z,101585.59
2023-05-23T17:13:43.634Z,101589.13
2023-05-23T17:16:10.504Z,101593.53
2023-05-23T17:18:37.279Z,101596.81
2023-05-23T17:21:03.709Z,101593.53
2023-05-23T17:23:30.165Z,101598.19
2023-05-23T17:25:56.702Z,101604.78
2023-05-23T17:28:23.224Z,101600.34
2023-05-23T17:30:51.586Z,101602.78
2023-05-23T17:33:17.999Z,101612.66
2023-05-23T17:35:44.560Z,101615.91
2023-05-23T17:38:11.143Z,101611.50
2023-05-23T17:40:37.674Z,101608.72
2023-05-23T17:43:04.108Z,101615.88
2023-05-23T17:45:31.533Z,101616.13
2023-05-23T17:47:58.785Z,101622.44
2023-05-23T17:50:25.335Z,101620.25
2023-05-23T17:52:51.878Z,101620.28
2023-05-23T17:55:18.305Z,101621.88
2023-05-23T17:57:45.018Z,101621.91
2023-05-23T18:00:12.082Z,101625.19
2023-05-23T18:02:38.522Z,101623.50
2023-05-23T18:05:06.909Z,101634.47
2023-05-23T18:07:33.402Z,101624.84
2023-05-23T18:09:59.992Z,101632.03
2023-05-23T18:12:26.923Z,101628.66
2023-05-23T18:14:53.446Z,101623.69
2023-05-23T18:17:20.230Z,101624.47
2023-05-23T18:19:46.715Z,101623.84
2023-05-23T18:22:14.275Z,101622.25
2023-05-23T18:24:41.712Z,101628.56
2023-05-23T18:27:08.470Z,101630.50
2023-05-23T18:29:35.463Z,101641.47
2023-05-23T18:32:02.361Z,101639.22
2023-05-23T18:34:29.413Z,101636.47
2023-05-23T18:36:56.129Z,101637.56
2023-05-23T18:39:22.910Z,101638.59
2023-05-23T18:41:49.380Z,101642.41
2023-05-23T18:44:17.469Z,101638.56
2023-05-23T18:46:45.325Z,101641.84
2023-05-23T18:49:11.756Z,101648.34
2023-05-23T18:51:39.349Z,101645.59
2023-05-23T18:54:05.864Z,101648.91
2023-05-23T18:56:32.263Z,101646.09
2023-05-23T18:58:58.669Z,101646.34
2023-05-23T19:01:25.634Z,101654.00
2023-05-23T19:03:52.531Z,101659.16
2023-05-23T19:06:19.235Z,101664.00
2023-05-23T19:08:45.994Z,101671.16
2023-05-23T19:11:12.374Z,101674.16
2023-05-23T19:13:38.874Z,101676.00
2023-05-23T19:16:05.477Z,101682.53
2023-05-23T19:18:32.008Z,101686.88
2023-05-23T19:20:58.423Z,101698.66
2023-05-23T19:23:25.162Z,101691.00
2023-05-23T19:25:51.619Z,101693.06
2023-05-23T19:28:18.076Z,101696.00
2023-05-23T19:30:44.759Z,101702.50
2023-05-23T19:33:11.496Z,101707.91
2023-05-23T19:35:38.415Z,101711.75
2023-05-23T19:38:04.944Z,101710.59
2023-05-23T19:40:31.300Z,101709.44
2023-05-23T19:42:57.735Z,101708.13
2023-05-23T19:45:24.289Z,101705.56
2023-05-23T19:47:50.694Z,101714.34
2023-05-23T19:50:17.111Z,101711.47
2023-05-23T19:52:43.581Z,101722.09
2023-05-23T19:55:10.044Z,101732.75
2023-05-23T19:57:37.037Z,101726.72
2023-05-23T20:00:05.614Z,101731.59
2023-05-23T20:02:32.040Z,101729.88
2023-05-23T20:04:58.465Z,101732.59
2023-05-23T20:07:24.853Z,101728.13
2023-05-23T20:09:51.318Z,101737.44
2023-05-23T20:12:17.757Z,101742.06
2023-05-23T20:14:44.215Z,101749.97
2023-05-23T20:17:10.748Z,101749.06
2023-05-23T20:19:37.275Z,101745.28
2023-05-23T20:22:03.851Z,101752.91
2023-05-23T20:24:31.787Z,101752.38
2023-05-23T20:26:58.427Z,101751.75
2023-05-23T20:29:24.873Z,101758.22
2023-05-23T20:31:51.669Z,101772.03
2023-05-23T20:34:18.114Z,101770.63
2023-05-23T20:36:44.558Z,101772.47
2023-05-23T20:39:11.040Z,101783.59
2023-05-23T20:41:37.483Z,101775.25
2023-05-23T20:44:03.877Z,101785.00
2023-05-23T20:46:30.655Z,101785.47
2023-05-23T20:48:57.545Z,101789.78
2023-05-23T20:51:24.063Z,101781.00
2023-05-23T20:53:51.760Z,101798.91
2023-05-23T20:56:18.187Z,101792.63
2023-05-23T20:58:45.954Z,101792.75
2023-05-23T21:01:12.466Z,101793.84
2023-05-23T21:03:38.899Z,101786.00
2023-05-23T21:06:05.672Z,101789.13
2023-05-23T21:08:34.547Z,101795.69
2023-05-23T21:11:01.301Z,101798.88
2023-05-23T21:13:27.978Z,101798.09
2023-05-23T21:15:54.344Z,101799.53
2023-05-23T21:18:22.308Z,101805.00
2023-05-23T21:20:50.576Z,101806.09
2023-05-23T21:23:17.112Z,101800.91
2023-05-23T21:25:43.528Z,101795.66
2023-05-23T21:28:09.968Z,101807.53
2023-05-23T21:30:36.754Z,101797.34
2023-05-23T21:33:03.350Z,101799.00
2023-05-23T21:35:29.804Z,101803.44
2023-05-23T21:37:56.353Z,101801.03
2023-05-23T21:40:25.194Z,101799.25
2023-05-23T21:42:51.629Z,101802.69
2023-05-23T21:45:18.011Z,101809.94
2023-05-23T21:47:44.494Z,101804.47
2023-05-23T21:50:11.309Z,101812.91
2023-05-23T21:52:37.726Z,101808.97
2023-05-23T21:55:04.536Z,101810.66
2023-05-23T21:57:31.060Z,101814.41
2023-05-23T21:59:57.420Z,101815.25
2023-05-23T22:02:23.919Z,101813.22
2023-05-23T22:04:50.301Z,101813.94
2023-05-23T22:07:16.718Z,101811.94
2023-05-23T22:09:43.167Z,101817.41
2023-05-23T22:12:09.645Z,101812.78
2023-05-23T22:14:36.126Z,101817.50
2023-05-23T22:17:03.793Z,101814.91
2023-05-23T22:19:30.387Z,101812.41
2023-05-23T22:21:56.872Z,101815.50
2023-05-23T22:24:23.581Z,101813.94
2023-05-23T22:26:50.021Z,101803.50
2023-05-23T22:29:16.386Z,101806.00
2023-05-23T22:31:42.871Z,101809.09
2023-05-23T22:34:09.451Z,101809.53
2023-05-23T22:36:36.634Z,101812.75
2023-05-23T22:39:05.178Z,101801.72
2023-05-23T22:41:32.204Z,101802.19
2023-05-23T22:43:58.633Z,101812.03
2023-05-23T22:46:25.126Z,101807.06
2023-05-23T22:48:52.522Z,101815.44
2023-05-23T22:51:19.845Z,101814.69
2023-05-23T22:53:46.268Z,101819.69
2023-05-23T22:56:12.756Z,101824.66
2023-05-23T22:58:39.282Z,101817.31
2023-05-23T23:01:05.893Z,101817.75
2023-05-23T23:03:32.393Z,101810.66
2023-05-23T23:05:59.366Z,101815.25
2023-05-23T23:08:25.915Z,101805.28
2023-05-23T23:10:52.353Z,101811.56
2023-05-23T23:13:18.907Z,101811.56
2023-05-23T23:15:45.334Z,101816.91
2023-05-23T23:18:13.694Z,101817.50
2023-05-23T23:20:40.730Z,101810.69
2023-05-23T23:23:07.595Z,101818.38
2023-05-23T23:25:34.067Z,101816.81
2023-05-23T23:28:00.919Z,101822.47
2023-05-23T23:30:27.553Z,101820.56
2023-05-23T23:32:54.032Z,101821.16
2023-05-23T23:35:20.543Z,101819.84
2023-05-23T23:37:47.116Z,101824.69
2023-05-23T23:40:13.547Z,101828.94
2023-05-23T23:42:40.414Z,101817.84
2023-05-23T23:45:07.292Z,101829.44
2023-05-23T23:47:33.842Z,101826.25
2023-05-23T23:50:00.373Z,101828.13
2023-05-23T23:52:28.139Z,101823.00
2023-05-23T23:54:54.761Z,101828.06
2023-05-23T23:57:21.205Z,101831.09
2023-05-23T23:59:47.746Z,101840.56
